SKBQ/BAQ METAR and TAF weather

Enter ICAO airport designator
Station Type Date Time Source
SKBQ METAR 2020/08/14 17:00 UTC NOAA

SKBQ 141700Z 19008KT 160V220 9999 SCT015 32/25 A2979 NOSIG


Station Type Date Time Source
SKBQ Decoded METAR 2020/08/14 17:00 UTC NOAA

Barranquilla / Ernestocortissoz, Colombia (SKBQ) 10-53N 074-47W 30M
Aug 14, 2020 - 01:00 PM EDT / 2020.08.14 1700 UTC
Wind: from the S (190 degrees) at 9 MPH (8 KT) (direction variable):0
Visibility: greater than 7 mile(s):0
Sky conditions: partly cloudy
Temperature: 89 F (32 C)
Heat index: 100.6 F (38.1 C):1
Dew Point: 77 F (25 C)
Relative Humidity: 66%
Pressure (altimeter): 29.79 in. Hg (1008 hPa)
ob: SKBQ 141700Z 19008KT 160V220 9999 SCT015 32/25 A2979 NOSIG
cycle: 17

Station Type Date Time Source
SKBQ TAF 2020/08/14 18:34 UTC NOAA

TAF SKBQ 141630Z 1418/1518 02012KT 9999 SCT015 PROB40
TEMPO 1419/1422 TSRA BKN012 FEW015CB
BECMG 1506/1508 VRB04KT
TEMPO 1509/1511 DZRA SCT010 SCT080
TEMPO 1510/1513 4000 BR BKN010
TEMPO 1516/1518 TSRA BKN012 FEW015CB TX32/1418Z TN25/1509Z

Example: see airport list